Time;durP1;ratioP1;P1;durP2;ratioP2;P2;SDS_P1;SDS_P2;PMS_P1;PMS_P2;Temp;Humidity;BMP_temperature;BMP_pressure;BME280_temperature;BME280_humidity;BME280_pressure;Samples;Min_cycle;Max_cycle;Signal;HPM_P1;HPM_P2
2021/10/26 00:01:39;;;;;;;7.07;3.35;;;;;;;2.44;100.00;100924.94;5027469;28;20060;-69
2021/10/26 00:04:23;;;;;;;6.70;2.92;;;;;;;2.34;100.00;100929.00;5027217;28;20057;-64
2021/10/26 00:07:08;;;;;;;5.68;2.97;;;;;;;2.33;100.00;100927.22;5028148;28;20084;-62
2021/10/26 00:09:52;;;;;;;8.73;3.22;;;;;;;2.28;100.00;100925.28;5028717;28;20087;-64
2021/10/26 00:12:37;;;;;;;10.15;2.78;;;;;;;2.34;100.00;100925.50;5028040;28;20076;-71
2021/10/26 00:15:21;;;;;;;6.32;2.47;;;;;;;2.31;100.00;100915.84;5028247;28;20072;-72
2021/10/26 00:18:07;;;;;;;9.50;2.90;;;;;;;2.26;100.00;100914.78;5002585;28;20570;-63
2021/10/26 00:20:51;;;;;;;6.45;2.90;;;;;;;2.26;100.00;100919.16;5028420;28;20084;-71
2021/10/26 00:23:36;;;;;;;7.03;2.95;;;;;;;2.18;100.00;100905.81;5011840;28;20052;-65
2021/10/26 00:26:21;;;;;;;11.93;2.88;;;;;;;2.06;100.00;100897.56;5013268;28;20052;-71
2021/10/26 00:29:06;;;;;;;5.22;2.65;;;;;;;2.02;100.00;100905.28;5009254;28;20084;-62
2021/10/26 00:31:52;;;;;;;9.60;3.05;;;;;;;2.07;100.00;100898.47;5027505;28;20056;-64
2021/10/26 00:34:36;;;;;;;8.23;2.50;;;;;;;2.19;100.00;100894.53;5006688;28;20521;-63
2021/10/26 00:37:23;;;;;;;5.60;2.53;;;;;;;2.16;100.00;100901.38;5020198;28;20055;-68
2021/10/26 00:40:09;;;;;;;7.32;2.80;;;;;;;2.07;100.00;100883.69;5013305;28;20112;-62
2021/10/26 00:42:55;;;;;;;7.05;2.70;;;;;;;2.05;100.00;100892.31;5026014;28;20111;-63
2021/10/26 00:45:41;;;;;;;6.38;2.47;;;;;;;2.10;100.00;100893.34;5007831;28;20187;-63
2021/10/26 00:48:26;;;;;;;4.32;2.70;;;;;;;2.18;100.00;100891.84;5026276;28;20056;-64
2021/10/26 00:51:11;;;;;;;7.88;2.63;;;;;;;2.27;100.00;100889.53;5009009;28;20055;-72
2021/10/26 00:53:59;;;;;;;6.80;2.60;;;;;;;2.20;100.00;100887.53;5013535;28;20044;-65
2021/10/26 00:56:46;;;;;;;5.63;2.60;;;;;;;2.36;100.00;100889.78;5013280;28;20052;-62
2021/10/26 00:59:31;;;;;;;7.97;2.17;;;;;;;2.24;100.00;100882.47;5027147;28;20167;-62
2021/10/26 01:02:17;;;;;;;9.35;2.80;;;;;;;2.42;100.00;100879.53;5025224;28;20056;-61
2021/10/26 01:05:04;;;;;;;6.18;2.45;;;;;;;2.48;100.00;100885.81;5028152;28;20048;-68
2021/10/26 01:07:50;;;;;;;6.82;2.75;;;;;;;2.61;100.00;100884.47;5027493;28;20118;-63
2021/10/26 01:10:36;;;;;;;6.20;2.67;;;;;;;2.36;100.00;100868.84;5011113;28;20413;-63
2021/10/26 01:13:24;;;;;;;6.65;2.40;;;;;;;2.44;100.00;100876.09;4997724;28;20472;-63
2021/10/26 01:16:10;;;;;;;6.78;2.78;;;;;;;2.47;100.00;100881.44;5012032;28;20091;-64
2021/10/26 01:18:55;;;;;;;6.47;2.35;;;;;;;2.39;100.00;100862.00;5013169;28;20087;-67
2021/10/26 01:21:40;;;;;;;6.50;2.30;;;;;;;2.20;100.00;100870.13;5012807;28;20052;-63
2021/10/26 01:24:25;;;;;;;5.45;2.20;;;;;;;2.08;100.00;100863.63;4995355;28;20052;-63
2021/10/26 01:27:09;;;;;;;6.35;2.30;;;;;;;2.09;100.00;100865.41;5026244;28;20052;-64
2021/10/26 01:29:54;;;;;;;7.80;2.40;;;;;;;2.06;100.00;100870.56;5018045;28;20103;-66
2021/10/26 01:32:41;;;;;;;4.88;2.33;;;;;;;2.09;100.00;100865.41;5026319;28;20052;-64
2021/10/26 01:35:46;;;;;;;5.72;2.20;;;;;;;2.04;100.00;100864.38;5017417;28;20099;-62
2021/10/26 01:38:31;;;;;;;6.57;2.50;;;;;;;2.06;100.00;100852.25;5011196;28;20052;-61
2021/10/26 01:41:16;;;;;;;5.00;2.45;;;;;;;2.14;100.00;100849.00;5014484;28;20045;-62
2021/10/26 01:44:01;;;;;;;7.47;2.40;;;;;;;2.25;100.00;100844.13;5037988;28;20080;-63
2021/10/26 01:46:47;;;;;;;5.20;2.45;;;;;;;2.28;100.00;100852.94;5024939;28;20172;-70
2021/10/26 01:49:36;;;;;;;4.80;2.40;;;;;;;2.32;100.00;100848.66;5018786;28;20125;-64
2021/10/26 01:52:21;;;;;;;4.68;2.28;;;;;;;2.18;100.00;100837.78;5016668;28;20091;-64
2021/10/26 01:55:07;;;;;;;6.13;2.60;;;;;;;2.16;100.00;100836.88;5024390;28;20052;-66
2021/10/26 01:57:55;;;;;;;5.10;2.85;;;;;;;2.11;100.00;100828.00;5019478;28;20083;-62
2021/10/26 02:00:56;;;;;;;6.18;2.55;;;;;;;2.09;100.00;100826.19;5016431;28;20052;-65
2021/10/26 02:03:41;;;;;;;6.75;2.83;;;;;;;2.15;100.00;100824.63;5008254;28;20531;-62
2021/10/26 02:06:25;;;;;;;7.53;2.80;;;;;;;1.99;100.00;100811.94;5024000;28;20074;-63
2021/10/26 02:09:10;;;;;;;11.07;2.95;;;;;;;2.12;100.00;100823.63;5023451;28;20064;-66
2021/10/26 02:11:58;;;;;;;6.40;2.90;;;;;;;2.07;100.00;100810.44;5009553;28;20103;-69
2021/10/26 02:14:43;;;;;;;7.68;2.80;;;;;;;2.17;100.00;100815.09;5010996;28;20044;-63
2021/10/26 02:17:28;;;;;;;6.25;3.08;;;;;;;2.16;100.00;100802.84;5024688;28;20524;-61
2021/10/26 02:20:13;;;;;;;7.57;3.03;;;;;;;2.30;100.00;100813.72;5019963;28;20095;-65
2021/10/26 02:22:58;;;;;;;9.07;3.42;;;;;;;2.22;100.00;100805.63;5027696;28;20047;-62
2021/10/26 02:25:44;;;;;;;6.45;3.15;;;;;;;2.15;100.00;100803.72;5024671;28;20418;-61
2021/10/26 02:28:29;;;;;;;7.43;3.30;;;;;;;2.03;100.00;100798.13;5005875;28;20065;-68
2021/10/26 02:31:16;;;;;;;6.40;3.10;;;;;;;2.13;100.00;100794.03;4994296;28;20053;-61
2021/10/26 02:34:01;;;;;;;9.80;3.35;;;;;;;2.00;100.00;100790.16;5009543;28;20605;-60
2021/10/26 02:36:47;;;;;;;5.97;2.67;;;;;;;2.16;100.00;100797.63;5005400;28;20061;-61
2021/10/26 02:39:34;;;;;;;7.47;2.97;;;;;;;2.21;100.00;100793.41;5009139;28;20087;-60
2021/10/26 02:42:18;;;;;;;6.03;2.60;;;;;;;2.16;100.00;100789.78;5012333;28;20481;-69
2021/10/26 02:45:09;;;;;;;8.18;2.92;;;;;;;1.92;100.00;100791.66;5021173;28;20525;-56
2021/10/26 02:47:56;;;;;;;6.47;2.90;;;;;;;1.92;100.00;100789.03;5026915;28;20048;-62
2021/10/26 02:50:41;;;;;;;7.03;2.90;;;;;;;1.89;100.00;100785.44;5031037;28;20075;-59
2021/10/26 02:53:26;;;;;;;5.78;2.60;;;;;;;1.90;100.00;100787.22;5026281;28;20080;-62
2021/10/26 02:56:11;;;;;;;7.68;2.88;;;;;;;1.98;100.00;100786.59;5013827;28;20110;-66
2021/10/26 02:58:55;;;;;;;10.43;2.90;;;;;;;2.02;100.00;100782.38;4996879;28;20513;-58
2021/10/26 03:01:40;;;;;;;7.60;3.55;;;;;;;1.83;100.00;100780.94;5031934;28;20052;-71
2021/10/26 03:04:25;;;;;;;5.75;2.70;;;;;;;2.05;100.00;100777.25;4997491;28;20068;-62
2021/10/26 03:07:11;;;;;;;6.40;2.92;;;;;;;1.97;100.00;100776.13;5009268;28;20098;-62
2021/10/26 03:09:59;;;;;;;5.15;2.58;;;;;;;2.05;100.00;100774.63;5012252;28;20140;-61
2021/10/26 03:12:44;;;;;;;6.82;2.63;;;;;;;2.12;100.00;100774.84;4995870;28;20409;-63
2021/10/26 03:15:29;;;;;;;4.93;2.88;;;;;;;2.08;100.00;100772.06;5024603;28;20161;-66
2021/10/26 03:18:27;;;;;;;7.80;2.90;;;;;;;2.02;100.00;100771.91;5022900;28;20430;-61
2021/10/26 03:21:12;;;;;;;6.55;2.60;;;;;;;2.00;100.00;100769.25;5012663;28;20076;-65
2021/10/26 03:23:56;;;;;;;6.53;2.47;;;;;;;2.16;100.00;100763.63;5025418;28;20048;-63
2021/10/26 03:26:41;;;;;;;7.22;2.80;;;;;;;2.18;100.00;100764.53;5024408;28;20421;-63
2021/10/26 03:29:26;;;;;;;7.05;2.50;;;;;;;2.24;100.00;100766.44;5008592;28;20061;-73
2021/10/26 03:32:11;;;;;;;9.35;2.80;;;;;;;2.30;100.00;100767.50;5010351;28;20043;-66
2021/10/26 03:35:14;;;;;;;4.78;2.70;;;;;;;2.16;100.00;100765.34;5025307;28;20059;-60
2021/10/26 03:38:01;;;;;;;9.13;3.78;;;;;;;2.14;100.00;100769.66;5023805;28;20095;-71
2021/10/26 03:40:46;;;;;;;4.60;2.58;;;;;;;2.12;100.00;100766.09;5009296;28;20072;-67
2021/10/26 03:43:31;;;;;;;7.03;2.80;;;;;;;2.02;100.00;100756.22;5027308;28;20052;-61
2021/10/26 03:46:15;;;;;;;5.63;2.70;;;;;;;2.01;100.00;100763.16;5028881;28;20138;-61
2021/10/26 03:49:02;;;;;;;6.78;2.67;;;;;;;2.03;100.00;100753.66;5028151;28;20110;-61
2021/10/26 03:51:47;;;;;;;6.28;2.80;;;;;;;2.11;100.00;100756.47;5008700;28;20068;-60
2021/10/26 03:54:32;;;;;;;5.00;2.67;;;;;;;2.02;100.00;100750.97;5010047;28;20084;-57
2021/10/26 03:57:18;;;;;;;9.30;4.05;;;;;;;1.99;100.00;100753.50;5023752;28;20107;-60
2021/10/26 04:00:04;;;;;;;;;;;;;;;2.01;100.00;100746.59;5014142;28;20079;-54
2021/10/26 04:02:59;;;;;;;11.27;3.47;;;;;;;1.87;100.00;100727.00;5011494;28;20325;-63
2021/10/26 04:11:27;;;;;;;7.35;2.92;;;;;;;2.02;100.00;100738.78;5028488;28;20891;-66
2021/10/26 04:14:17;;;;;;;7.53;3.30;;;;;;;2.07;100.00;100742.44;4999552;28;20096;-65
2021/10/26 04:17:01;;;;;;;5.57;2.70;;;;;;;1.95;100.00;100743.78;5027468;28;20408;-64
2021/10/26 04:19:50;;;;;;;6.93;3.13;;;;;;;1.95;100.00;100751.63;5010364;28;20422;-62
2021/10/26 04:22:35;;;;;;;7.65;3.22;;;;;;;1.90;100.00;100748.00;5029052;28;20079;-59
2021/10/26 04:25:19;;;;;;;8.40;3.22;;;;;;;1.95;100.00;100743.78;5012595;28;20065;-62
2021/10/26 04:28:04;;;;;;;7.70;3.10;;;;;;;1.82;100.00;100732.06;5028271;28;20157;-64
2021/10/26 04:30:50;;;;;;;8.32;3.22;;;;;;;1.76;100.00;100734.53;5013485;28;20099;-60
2021/10/26 04:33:38;;;;;;;9.95;3.38;;;;;;;1.71;100.00;100733.50;5026969;28;20044;-72
2021/10/26 04:36:22;;;;;;;6.38;3.50;;;;;;;1.82;100.00;100741.66;5027482;28;20425;-62
2021/10/26 04:39:12;;;;;;;7.85;3.50;;;;;;;1.79;100.00;100733.72;5013662;28;20102;-63
2021/10/26 04:41:57;;;;;;;10.45;3.40;;;;;;;2.00;100.00;100735.25;5008967;28;20092;-62
2021/10/26 04:44:42;;;;;;;9.23;4.15;;;;;;;2.07;100.00;100738.91;5020981;28;20067;-63
2021/10/26 04:47:30;;;;;;;9.27;3.83;;;;;;;2.27;100.00;100738.66;5013524;28;20615;-65
2021/10/26 04:50:16;;;;;;;7.65;3.50;;;;;;;2.34;100.00;100731.88;5033211;28;20071;-64
2021/10/26 04:53:01;;;;;;;11.25;4.03;;;;;;;2.32;100.00;100733.53;5013846;28;20588;-63
2021/10/26 04:55:45;;;;;;;6.75;3.17;;;;;;;2.24;100.00;100728.09;5012389;28;20512;-64
2021/10/26 04:58:30;;;;;;;8.68;3.63;;;;;;;2.29;100.00;100717.78;5012672;28;20103;-63
2021/10/26 05:01:14;;;;;;;8.05;3.65;;;;;;;2.29;100.00;100729.09;5011846;28;20057;-62
2021/10/26 05:03:59;;;;;;;8.73;3.72;;;;;;;2.23;100.00;100720.19;5025999;28;20049;-62
2021/10/26 05:06:45;;;;;;;8.45;3.72;;;;;;;2.31;100.00;100732.66;5024901;28;20064;-71
2021/10/26 05:09:29;;;;;;;10.63;3.45;;;;;;;2.54;100.00;100723.69;5007370;28;20418;-61
2021/10/26 05:12:14;;;;;;;5.47;3.08;;;;;;;2.53;100.00;100719.31;5023010;28;20060;-64
2021/10/26 05:14:59;;;;;;;7.55;2.80;;;;;;;2.62;100.00;100716.97;5025827;28;20174;-63
2021/10/26 05:18:14;;;;;;;7.75;3.40;;;;;;;2.63;100.00;100717.81;4946456;28;20133;-62
2021/10/26 05:21:21;;;;;;;8.90;3.85;;;;;;;2.60;100.00;100712.50;4918138;29;20103;-62
2021/10/26 05:24:26;;;;;;;19.40;7.68;;;;;;;2.82;100.00;100720.97;4946615;29;20137;-60
2021/10/26 05:27:21;;;;;;;10.65;4.32;;;;;;;2.87;100.00;100711.50;4930679;29;20053;-59
2021/10/26 05:30:07;;;;;;;10.25;4.05;;;;;;;3.16;100.00;100720.06;4953818;28;20058;-60
2021/10/26 05:32:54;;;;;;;11.10;5.03;;;;;;;3.12;100.00;100713.88;4927502;28;20420;-65
2021/10/26 05:35:39;;;;;;;11.48;4.72;;;;;;;3.26;100.00;100722.06;4943925;28;20061;-70
2021/10/26 05:38:23;;;;;;;12.65;4.50;;;;;;;3.19;100.00;100709.66;4946631;29;20054;-70
2021/10/26 05:41:11;;;;;;;9.60;4.45;;;;;;;3.29;100.00;100709.91;4945468;29;20071;-63
2021/10/26 05:43:55;;;;;;;8.95;3.95;;;;;;;3.38;100.00;100704.03;4945693;29;20105;-63
2021/10/26 05:46:41;;;;;;;11.88;3.58;;;;;;;3.51;100.00;100706.97;4940339;28;20149;-62
2021/10/26 05:49:26;;;;;;;11.30;3.92;;;;;;;3.58;100.00;100703.63;4943765;29;20098;-68
2021/10/26 05:52:12;;;;;;;10.35;3.58;;;;;;;3.48;100.00;100701.63;4958320;28;20186;-62
2021/10/26 05:54:56;;;;;;;9.55;3.90;;;;;;;3.40;100.00;100704.97;4986066;28;20052;-59
2021/10/26 05:57:41;;;;;;;9.85;4.00;;;;;;;3.48;100.00;100703.41;5025445;28;20068;-64
2021/10/26 06:00:26;;;;;;;7.68;3.67;;;;;;;3.32;100.00;100703.91;5009410;28;20060;-61
2021/10/26 06:03:12;;;;;;;9.27;3.60;;;;;;;3.42;100.00;100708.47;5015723;28;20048;-63
2021/10/26 06:05:56;;;;;;;8.70;4.00;;;;;;;3.44;100.00;100712.91;5023450;28;20096;-62
2021/10/26 06:08:41;;;;;;;10.95;4.32;;;;;;;3.80;100.00;100699.75;5018934;28;20571;-70
2021/10/26 06:11:26;;;;;;;10.82;4.13;;;;;;;3.71;100.00;100692.56;4991582;28;20053;-66
2021/10/26 06:14:12;;;;;;;10.57;3.63;;;;;;;3.70;100.00;100698.66;5015891;28;20056;-63
2021/10/26 06:17:01;;;;;;;6.25;3.22;;;;;;;3.64;100.00;100701.13;4994702;28;20140;-65
2021/10/26 06:19:50;;;;;;;8.02;3.05;;;;;;;3.75;100.00;100690.88;5011669;28;20096;-65
2021/10/26 06:22:35;;;;;;;9.60;3.25;;;;;;;3.84;100.00;100691.97;5002494;28;20133;-72
2021/10/26 06:25:20;;;;;;;;;;;;;;;3.87;100.00;100710.41;5005585;28;20087;-64
2021/10/26 06:28:28;;;;;;;8.68;3.75;;;;;;;3.88;100.00;100701.66;4924373;29;19978;-64
2021/10/26 06:31:13;;;;;;;8.10;4.13;;;;;;;3.87;100.00;100713.03;4923697;29;20556;-71
2021/10/26 06:34:05;;;;;;;11.85;3.70;;;;;;;3.99;100.00;100713.28;4922088;29;20127;-61
2021/10/26 06:36:49;;;;;;;8.70;3.90;;;;;;;4.06;100.00;100709.94;4909935;29;20730;-61
2021/10/26 06:39:35;;;;;;;8.98;4.00;;;;;;;4.16;100.00;100713.66;4917394;29;20046;-64
2021/10/26 06:42:21;;;;;;;7.15;3.45;;;;;;;4.07;100.00;100705.56;4923776;29;20055;-59
2021/10/26 06:45:32;;;;;;;7.15;4.00;;;;;;;4.28;100.00;100708.63;4923548;29;20050;-66
2021/10/26 06:48:44;;;;;;;8.98;3.83;;;;;;;4.35;100.00;100698.28;4895002;29;20059;-69
2021/10/26 06:51:47;;;;;;;8.77;4.18;;;;;;;4.36;100.00;100696.56;4894615;29;20446;-65
2021/10/26 06:54:51;;;;;;;13.80;5.07;;;;;;;4.49;100.00;100698.53;4882221;29;20112;-63
2021/10/26 06:57:54;;;;;;;9.82;4.53;;;;;;;4.69;100.00;100690.19;4896931;29;20128;-72
2021/10/26 07:00:47;;;;;;;12.80;4.45;;;;;;;4.78;100.00;100692.97;4885444;29;20063;-66
2021/10/26 07:03:50;;;;;;;;;;;;;;;4.94;100.00;100691.47;4886229;29;20047;-65
2021/10/26 07:06:44;;;;;;;7.72;3.92;;;;;;;4.94;100.00;100688.84;4947747;28;19960;-65
2021/10/26 07:09:48;;;;;;;10.07;4.60;;;;;;;4.90;100.00;100689.66;4953447;28;20507;-64
2021/10/26 07:12:40;;;;;;;11.38;4.80;;;;;;;5.09;100.00;100689.13;4948298;28;20105;-65
2021/10/26 07:15:28;;;;;;;11.15;4.32;;;;;;;5.08;100.00;100671.59;4946569;28;20053;-65
2021/10/26 07:18:15;;;;;;;10.45;4.85;;;;;;;5.33;100.00;100678.97;4959734;28;20081;-71
2021/10/26 07:21:00;;;;;;;8.70;4.25;;;;;;;5.46;100.00;100669.53;4950318;28;20058;-67
2021/10/26 07:24:05;;;;;;;10.88;4.60;;;;;;;5.59;100.00;100663.59;4950576;28;20094;-65
2021/10/26 07:26:53;;;;;;;11.85;4.15;;;;;;;5.52;100.00;100662.63;5001261;28;20441;-64
2021/10/26 07:29:38;;;;;;;9.60;4.07;;;;;;;5.74;100.00;100664.66;5019688;28;20176;-65
2021/10/26 07:32:27;;;;;;;9.55;4.75;;;;;;;5.89;100.00;100664.03;5002696;28;20813;-63
2021/10/26 07:35:14;;;;;;;9.73;4.10;;;;;;;5.93;100.00;100665.84;5005211;28;20099;-70
2021/10/26 07:37:59;;;;;;;10.18;4.57;;;;;;;5.99;100.00;100668.53;5003625;28;20061;-67
2021/10/26 07:40:44;;;;;;;8.05;4.47;;;;;;;6.22;100.00;100662.72;5004475;28;20200;-71
2021/10/26 07:43:47;;;;;;;12.50;4.43;;;;;;;6.49;100.00;100667.41;4998786;28;20661;-66
2021/10/26 07:46:51;;;;;;;10.77;4.72;;;;;;;7.35;100.00;100663.75;5001190;28;20053;-67
2021/10/26 07:49:39;;;;;;;11.30;5.13;;;;;;;8.23;100.00;100682.75;5004449;28;20057;-68
2021/10/26 07:52:25;;;;;;;13.75;4.47;;;;;;;8.71;97.16;100674.09;5003032;28;20057;-69
2021/10/26 07:55:25;;;;;;;11.00;4.40;;;;;;;8.56;92.81;100659.09;5015682;28;20084;-74
2021/10/26 07:58:17;;;;;;;9.75;4.88;;;;;;;9.65;89.36;100654.66;4999676;28;20056;-65
2021/10/26 08:01:05;;;;;;;9.00;5.45;;;;;;;10.21;83.08;100651.88;5013312;28;20076;-68
2021/10/26 08:04:11;;;;;;;7.95;4.78;;;;;;;10.96;77.85;100657.59;5001773;28;20568;-69
2021/10/26 08:07:01;;;;;;;9.82;5.70;;;;;;;11.05;71.86;100644.28;5001866;28;20532;-65
2021/10/26 08:09:49;;;;;;;11.77;4.90;;;;;;;11.47;68.72;100654.50;5004440;28;20149;-64
2021/10/26 08:12:34;;;;;;;13.68;4.93;;;;;;;11.84;66.34;100639.09;5006192;28;20092;-63
2021/10/26 08:15:18;;;;;;;10.40;4.80;;;;;;;12.16;62.50;100642.25;5021595;28;20053;-64
2021/10/26 08:18:04;;;;;;;12.20;4.53;;;;;;;12.50;59.35;100640.91;4989162;28;20057;-67
2021/10/26 08:20:49;;;;;;;13.65;4.45;;;;;;;13.18;56.97;100649.63;5017923;28;20068;-63
2021/10/26 08:23:35;;;;;;;15.23;5.55;;;;;;;13.09;55.41;100649.78;5002100;28;20169;-63
2021/10/26 08:26:29;;;;;;;11.75;4.97;;;;;;;12.69;54.51;100639.72;4999327;28;20140;-65
2021/10/26 08:29:20;;;;;;;11.05;4.70;;;;;;;12.60;54.64;100639.88;4997045;28;20100;-63
2021/10/26 08:35:26;;;;;;;9.10;4.37;;;;;;;13.36;52.55;100628.03;5013211;28;20052;-74
2021/10/26 08:38:12;;;;;;;11.50;4.22;;;;;;;13.59;52.50;100632.94;5004244;28;20084;-65
2021/10/26 08:41:15;;;;;;;9.93;5.13;;;;;;;13.79;50.74;100631.66;5001414;28;20049;-65
2021/10/26 08:44:02;;;;;;;9.80;4.40;;;;;;;12.78;51.31;100639.63;4996722;28;20181;-59
2021/10/26 08:46:48;;;;;;;9.18;4.60;;;;;;;12.14;54.22;100628.06;5000012;28;20137;-64
2021/10/26 08:49:38;;;;;;;9.65;5.15;;;;;;;12.72;54.43;100629.03;5001177;28;20053;-63
2021/10/26 08:52:45;;;;;;;9.27;4.90;;;;;;;13.01;52.63;100629.50;5013901;28;20202;-62
2021/10/26 08:56:03;;;;;;;9.73;6.22;;;;;;;12.79;50.84;100628.91;5003815;28;20087;-62
2021/10/26 08:59:07;;;;;;;13.77;5.03;;;;;;;13.62;50.86;100620.41;5000035;28;20140;-62
2021/10/26 09:01:59;;;;;;;9.00;4.55;;;;;;;13.59;49.37;100616.94;5016838;28;20060;-60
2021/10/26 09:04:45;;;;;;;12.35;4.75;;;;;;;13.60;48.97;100621.34;5003158;28;20168;-66
2021/10/26 09:07:30;;;;;;;12.70;4.88;;;;;;;13.98;46.89;100613.50;4996839;28;20061;-62
2021/10/26 09:10:16;;;;;;;10.55;3.92;;;;;;;14.77;46.11;100613.56;4999890;28;20103;-60
2021/10/26 09:16:50;;;;;;;11.07;4.82;;;;;;;14.83;44.91;100600.03;4991416;28;20052;-68
2021/10/26 09:19:56;;;;;;;10.05;4.25;;;;;;;14.98;43.10;100599.69;5010486;28;20422;-63
2021/10/26 09:22:56;;;;;;;10.80;4.65;;;;;;;16.10;42.13;100603.75;5006269;28;20052;-71
2021/10/26 09:25:41;;;;;;;10.32;4.68;;;;;;;15.79;40.48;100604.69;5003266;28;20048;-63
2021/10/26 09:28:29;;;;;;;10.23;4.88;;;;;;;15.74;39.97;100612.84;5018919;28;20099;-64
2021/10/26 09:31:26;;;;;;;7.40;4.15;;;;;;;16.14;39.42;100600.06;5002313;28;20053;-67
2021/10/26 09:34:16;;;;;;;10.85;4.72;;;;;;;16.03;40.14;100590.63;4998427;28;20069;-66
2021/10/26 09:37:03;;;;;;;8.18;4.72;;;;;;;16.14;39.44;100581.34;5013328;28;20049;-64
2021/10/26 09:39:58;;;;;;;11.30;4.60;;;;;;;15.98;39.59;100589.88;5002013;28;20057;-67
2021/10/26 09:42:48;;;;;;;9.68;4.90;;;;;;;15.66;39.24;100592.59;5004597;28;20078;-64
2021/10/26 09:45:34;;;;;;;7.80;4.75;;;;;;;14.69;40.44;100591.50;4998150;28;20045;-68
2021/10/26 09:48:23;;;;;;;10.55;4.50;;;;;;;15.05;41.79;100581.69;4992706;28;20061;-62
2021/10/26 09:51:10;;;;;;;11.98;4.85;;;;;;;15.63;40.18;100580.16;5007962;28;20053;-65
2021/10/26 09:53:58;;;;;;;10.23;4.15;;;;;;;14.74;40.16;100562.00;5016830;28;20123;-70
2021/10/26 09:57:02;;;;;;;9.63;4.72;;;;;;;14.49;41.45;100563.50;5004794;28;20180;-67
2021/10/26 09:59:53;;;;;;;9.63;4.30;;;;;;;14.90;41.71;100552.69;5017861;28;20064;-66
2021/10/26 10:02:38;;;;;;;10.55;5.10;;;;;;;14.84;40.79;100537.72;4965139;28;20100;-67
2021/10/26 10:05:27;;;;;;;11.50;5.10;;;;;;;14.87;40.83;100552.81;5012211;28;20065;-72
2021/10/26 10:08:23;;;;;;;9.00;4.63;;;;;;;15.40;40.51;100538.94;5011205;28;20103;-67
2021/10/26 10:11:21;;;;;;;12.57;4.47;;;;;;;16.20;39.54;100537.47;4988529;28;20091;-67
2021/10/26 10:14:10;;;;;;;7.07;4.25;;;;;;;16.10;38.63;100538.69;5022169;28;20087;-67
2021/10/26 10:16:56;;;;;;;12.43;4.70;;;;;;;16.10;38.39;100523.50;5007046;28;20071;-66
2021/10/26 10:19:41;;;;;;;11.50;4.80;;;;;;;16.24;37.39;100532.00;5018552;28;20095;-68
2021/10/26 10:22:28;;;;;;;;;;;;;;;16.07;38.87;100509.34;4998742;28;20068;-67
2021/10/26 10:25:15;;;;;;;9.57;4.35;;;;;;;16.01;37.86;100513.06;5016696;28;20245;-66
2021/10/26 10:28:02;;;;;;;11.73;4.43;;;;;;;15.35;38.84;100501.63;5012439;28;20182;-69
2021/10/26 10:30:48;;;;;;;8.13;4.70;;;;;;;15.75;38.42;100504.09;5005923;28;20055;-68
2021/10/26 10:33:34;;;;;;;11.05;5.28;;;;;;;15.65;38.84;100500.78;5024908;28;20176;-59
2021/10/26 10:36:22;;;;;;;9.18;4.63;;;;;;;16.12;38.50;100494.03;5020560;28;20048;-62
2021/10/26 10:39:08;;;;;;;8.77;4.47;;;;;;;16.34;37.22;100493.28;5024411;28;20099;-65
2021/10/26 10:42:14;;;;;;;10.07;5.07;;;;;;;16.48;36.87;100500.91;5006994;28;20091;-66
2021/10/26 10:45:19;;;;;;;12.13;5.28;;;;;;;15.91;37.18;100497.34;5010304;28;20144;-67
2021/10/26 10:48:32;;;;;;;11.77;4.90;;;;;;;16.36;38.06;100482.53;5021172;28;20083;-63
2021/10/26 10:51:17;;;;;;;8.25;3.97;;;;;;;17.14;36.25;100480.75;5023615;28;20052;-64
2021/10/26 10:54:02;;;;;;;8.25;4.78;;;;;;;17.79;35.03;100481.97;5027883;28;20094;-64
2021/10/26 10:56:57;;;;;;;;;;;;;;;17.90;34.59;100471.69;5024152;28;20220;-63
2021/10/26 11:00:08;;;;;;;13.82;4.55;;;;;;;16.77;34.62;100466.91;5024773;28;20012;-63
2021/10/26 11:02:57;;;;;;;8.70;4.43;;;;;;;17.14;34.96;100475.41;5009316;28;20425;-65
2021/10/26 11:05:42;;;;;;;9.52;4.47;;;;;;;17.32;35.14;100456.00;5023128;28;20049;-67
2021/10/26 11:08:48;;;;;;;;;;;;;;;18.16;35.07;100451.00;5023831;28;20079;-70
2021/10/26 11:12:13;;;;;;;9.80;4.22;;;;;;;18.53;32.97;100449.50;5006724;28;19927;-68
2021/10/26 11:15:01;;;;;;;8.85;4.65;;;;;;;17.51;33.08;100445.50;5024514;28;20131;-70
2021/10/26 11:17:56;;;;;;;11.38;3.95;;;;;;;17.79;33.59;100441.72;5010902;28;20136;-68
2021/10/26 11:20:43;;;;;;;7.85;4.15;;;;;;;16.41;34.39;100430.66;5013699;28;20144;-70
2021/10/26 11:23:32;;;;;;;8.90;4.00;;;;;;;16.74;35.44;100434.00;5026304;28;20072;-65
2021/10/26 11:26:31;;;;;;;6.68;4.00;;;;;;;16.68;34.93;100416.34;5026468;28;20048;-74
2021/10/26 11:29:28;;;;;;;6.13;3.35;;;;;;;16.40;34.71;100425.31;5029723;28;20846;-63
2021/10/26 11:32:16;;;;;;;7.50;3.60;;;;;;;16.27;34.36;100426.63;5029599;28;20083;-67
2021/10/26 11:35:16;;;;;;;9.23;3.75;;;;;;;16.78;34.87;100427.59;5029835;28;20076;-66
2021/10/26 11:38:10;;;;;;;13.20;3.60;;;;;;;16.31;34.38;100431.84;5012512;28;20183;-67
2021/10/26 11:41:21;;;;;;;9.52;3.97;;;;;;;16.26;35.08;100424.91;5030496;28;20044;-71
2021/10/26 11:44:12;;;;;;;8.18;3.92;;;;;;;16.53;34.69;100415.97;5027675;28;20092;-62
2021/10/26 11:47:01;;;;;;;9.10;4.00;;;;;;;16.23;34.21;100425.88;5028370;28;20059;-65
2021/10/26 11:49:46;;;;;;;8.65;3.72;;;;;;;15.68;35.33;100415.16;5029288;28;20155;-63
2021/10/26 11:52:37;;;;;;;7.07;3.65;;;;;;;15.92;35.46;100410.84;5019434;28;20099;-61
2021/10/26 11:55:29;;;;;;;9.27;4.15;;;;;;;14.99;35.97;100394.91;5025418;28;20174;-64
2021/10/26 11:58:16;;;;;;;9.38;3.85;;;;;;;14.73;36.55;100410.75;5013865;28;20048;-61
2021/10/26 12:01:02;;;;;;;10.63;3.80;;;;;;;14.43;37.29;100411.56;5025978;28;20053;-61
2021/10/26 12:03:49;;;;;;;8.38;4.20;;;;;;;14.16;37.80;100397.06;5017523;28;20599;-74
2021/10/26 12:06:35;;;;;;;13.43;3.78;;;;;;;14.22;38.08;100407.63;5019587;28;20072;-65
2021/10/26 12:09:22;;;;;;;7.68;3.78;;;;;;;14.39;37.75;100400.06;5013352;28;20065;-66
2021/10/26 12:12:10;;;;;;;6.22;3.55;;;;;;;14.17;37.95;100401.50;5021666;28;20091;-64
2021/10/26 12:14:59;;;;;;;6.57;3.45;;;;;;;13.92;37.64;100397.66;5021526;28;20513;-67
2021/10/26 12:17:47;;;;;;;5.60;3.20;;;;;;;13.92;38.08;100394.13;5018353;28;20068;-64
2021/10/26 12:20:35;;;;;;;10.32;3.53;;;;;;;13.41;38.34;100393.47;5020790;28;20103;-66
2021/10/26 12:23:23;;;;;;;7.70;3.60;;;;;;;13.26;39.04;100399.16;5022769;28;20489;-63
2021/10/26 12:26:10;;;;;;;9.02;3.83;;;;;;;13.21;39.64;100390.34;5012046;28;20064;-66
2021/10/26 12:28:57;;;;;;;8.88;3.30;;;;;;;13.00;39.96;100385.47;5013775;28;20055;-65
2021/10/26 12:31:45;;;;;;;7.07;2.92;;;;;;;12.96;40.39;100384.63;5011102;28;20044;-63
2021/10/26 12:34:34;;;;;;;;;;;;;;;12.85;41.00;100383.97;5012710;28;20135;-65
2021/10/26 12:37:33;;;;;;;9.48;3.72;;;;;;;12.64;40.86;100387.03;5003988;28;19967;-63
2021/10/26 12:40:21;;;;;;;8.43;3.75;;;;;;;12.35;41.54;100383.16;5012220;28;20085;-63
2021/10/26 12:43:06;;;;;;;8.93;3.22;;;;;;;12.03;41.79;100382.81;5014766;28;20043;-64
2021/10/26 12:45:54;;;;;;;5.88;2.97;;;;;;;12.01;42.65;100387.25;5017523;28;20048;-65
2021/10/26 12:48:39;;;;;;;6.55;3.38;;;;;;;12.03;42.64;100388.13;5002897;28;20056;-68
2021/10/26 12:51:27;;;;;;;7.07;3.40;;;;;;;12.08;42.69;100383.59;5020803;28;20071;-64
2021/10/26 12:54:19;;;;;;;7.30;3.53;;;;;;;12.15;42.24;100390.59;5005682;28;20132;-66
2021/10/26 12:57:04;;;;;;;8.13;3.45;;;;;;;12.09;42.92;100380.94;5006236;28;20068;-69
2021/10/26 12:59:48;;;;;;;6.40;3.30;;;;;;;12.00;42.92;100378.44;5023694;28;20094;-64
2021/10/26 13:02:32;;;;;;;9.98;4.28;;;;;;;12.17;43.20;100378.13;5023216;28;20444;-74
2021/10/26 13:05:17;;;;;;;8.48;3.35;;;;;;;12.04;43.28;100373.94;5023161;28;20114;-62
2021/10/26 13:08:03;;;;;;;10.57;3.67;;;;;;;12.24;43.12;100374.47;5003752;28;20069;-63
2021/10/26 13:10:49;;;;;;;9.10;3.70;;;;;;;12.20;42.56;100376.31;5011681;28;20052;-64
2021/10/26 13:13:34;;;;;;;5.55;3.35;;;;;;;12.08;42.40;100376.53;5006499;28;20103;-65
2021/10/26 13:16:49;;;;;;;9.27;3.17;;;;;;;11.77;43.08;100375.25;5025170;28;20570;-62
2021/10/26 13:19:34;;;;;;;5.63;3.03;;;;;;;11.59;44.07;100371.94;5010250;28;20645;-64